Time;durP1;ratioP1;P1;durP2;ratioP2;P2;SDS_P1;SDS_P2;PMS_P1;PMS_P2;Temp;Humidity;BMP_temperature;BMP_pressure;BME280_temperature;BME280_humidity;BME280_pressure;Samples;Min_cycle;Max_cycle;Signal;HPM_P1;HPM_P2
2023/08/24 00:01:51;;;;;;;;;;;20.60;68.10;;;;;;5092965;28;19908;-37
2023/08/24 00:04:17;;;;;;;;;;;20.60;68.20;;;;;;5092932;28;19908;-36
2023/08/24 00:06:42;;;;;;;;;;;20.60;68.30;;;;;;5092748;28;19916;-38
2023/08/24 00:09:08;;;;;;;;;;;20.50;68.30;;;;;;5092667;28;20019;-37
2023/08/24 00:11:33;;;;;;;;;;;20.50;68.30;;;;;;5093026;28;19958;-38
2023/08/24 00:13:59;;;;;;;;;;;20.50;68.30;;;;;;5092975;28;19912;-35
2023/08/24 00:16:24;;;;;;;;;;;20.50;68.30;;;;;;5093033;28;19908;-37
2023/08/24 00:18:50;;;;;;;;;;;20.50;68.30;;;;;;5092628;28;20007;-37
2023/08/24 00:21:16;;;;;;;;;;;20.50;68.30;;;;;;5092741;28;19908;-37
2023/08/24 00:23:43;;;;;;;;;;;20.50;68.40;;;;;;5092885;28;19999;-38
2023/08/24 00:26:09;;;;;;;;;;;20.50;68.40;;;;;;5092946;28;20264;-37
2023/08/24 00:28:34;;;;;;;;;;;20.50;68.50;;;;;;5092680;28;20053;-37
2023/08/24 00:31:00;;;;;;;;;;;20.50;68.50;;;;;;5092672;28;20006;-36
2023/08/24 00:33:26;;;;;;;;;;;20.40;68.60;;;;;;5092314;28;19909;-36
2023/08/24 00:35:51;;;;;;;;;;;20.40;68.70;;;;;;5092338;28;19916;-36
2023/08/24 00:38:17;;;;;;;;;;;20.40;68.80;;;;;;5092173;28;19999;-34
2023/08/24 00:40:43;;;;;;;;;;;20.30;68.90;;;;;;5092392;28;19954;-40
2023/08/24 00:43:09;;;;;;;;;;;20.30;69.00;;;;;;5092209;28;20406;-38
2023/08/24 00:45:35;;;;;;;;;;;20.30;69.10;;;;;;5092208;28;19908;-36
2023/08/24 00:48:01;;;;;;;;;;;20.30;69.10;;;;;;5092023;28;19916;-37
2023/08/24 00:50:27;;;;;;;;;;;20.30;69.10;;;;;;5091486;28;19969;-37
2023/08/24 00:52:52;;;;;;;;;;;20.30;69.00;;;;;;5092480;28;19908;-37
2023/08/24 00:55:18;;;;;;;;;;;20.30;69.00;;;;;;5092075;28;19950;-37
2023/08/24 00:57:44;;;;;;;;;;;20.30;69.00;;;;;;5091922;28;19908;-38
2023/08/24 01:00:10;;;;;;;;;;;20.30;69.00;;;;;;5092433;28;20295;-37
2023/08/24 01:02:37;;;;;;;;;;;20.40;69.10;;;;;;5091922;28;20321;-38
2023/08/24 01:05:04;;;;;;;;;;;20.40;69.00;;;;;;5091992;28;19912;-37
2023/08/24 01:07:30;;;;;;;;;;;20.40;69.10;;;;;;5091731;28;19920;-37
2023/08/24 01:09:55;;;;;;;;;;;20.40;69.10;;;;;;5092108;28;20285;-38
2023/08/24 01:12:20;;;;;;;;;;;20.30;69.00;;;;;;5092292;28;19944;-37
2023/08/24 01:14:49;;;;;;;;;;;20.40;69.10;;;;;;5092078;28;19922;-37
2023/08/24 01:17:17;;;;;;;;;;;20.40;69.10;;;;;;5090526;28;20292;-38
2023/08/24 01:19:44;;;;;;;;;;;20.40;69.20;;;;;;5091950;28;19913;-37
2023/08/24 01:22:20;;;;;;;;;;;20.40;69.20;;;;;;5092286;28;20395;-38
2023/08/24 01:24:49;;;;;;;;;;;20.40;69.20;;;;;;5091978;28;19908;-37
2023/08/24 01:27:15;;;;;;;;;;;20.40;69.30;;;;;;5091610;28;19908;-38
2023/08/24 01:29:41;;;;;;;;;;;20.40;69.30;;;;;;5091835;28;20268;-36
2023/08/24 01:32:10;;;;;;;;;;;20.40;69.40;;;;;;5092155;28;19914;-39
2023/08/24 01:34:39;;;;;;;;;;;20.40;69.40;;;;;;5092139;28;19908;-38
2023/08/24 01:37:05;;;;;;;;;;;20.30;69.40;;;;;;5091537;28;19908;-37
2023/08/24 01:39:42;;;;;;;;;;;20.30;69.50;;;;;;5090476;28;19908;-38
2023/08/24 01:42:08;;;;;;;;;;;20.30;69.50;;;;;;5092015;28;19957;-45
2023/08/24 01:44:35;;;;;;;;;;;20.30;69.60;;;;;;5091763;28;19908;-37
2023/08/24 01:47:03;;;;;;;;;;;20.30;69.60;;;;;;5091861;28;19908;-37
2023/08/24 01:49:29;;;;;;;;;;;20.30;69.70;;;;;;5091389;28;20000;-38
2023/08/24 01:51:54;;;;;;;;;;;20.30;69.70;;;;;;5091585;28;19974;-37
2023/08/24 01:54:20;;;;;;;;;;;20.30;69.70;;;;;;5091843;28;19977;-37
2023/08/24 01:56:45;;;;;;;;;;;20.30;69.70;;;;;;5091899;28;19947;-37
2023/08/24 01:59:11;;;;;;;;;;;20.30;69.80;;;;;;5091358;28;19934;-36
2023/08/24 02:01:36;;;;;;;;;;;20.30;69.80;;;;;;5093522;28;19908;-37
2023/08/24 02:04:02;;;;;;;;;;;20.30;69.80;;;;;;5093609;28;19912;-35
2023/08/24 02:06:28;;;;;;;;;;;20.30;69.80;;;;;;5095210;28;20378;-38
2023/08/24 02:08:53;;;;;;;;;;;20.30;69.90;;;;;;5095207;28;19916;-36
2023/08/24 02:11:19;;;;;;;;;;;20.30;69.90;;;;;;5095432;28;19908;-36
2023/08/24 02:13:44;;;;;;;;;;;20.30;69.90;;;;;;5095163;28;19908;-35
2023/08/24 02:16:10;;;;;;;;;;;20.30;69.90;;;;;;5095367;28;19919;-37
2023/08/24 02:18:35;;;;;;;;;;;20.40;70.00;;;;;;5094915;28;19908;-35
2023/08/24 02:21:06;;;;;;;;;;;20.40;70.00;;;;;;5094944;28;19908;-36
2023/08/24 02:23:32;;;;;;;;;;;20.40;70.00;;;;;;5094989;28;19908;-38
2023/08/24 02:25:57;;;;;;;;;;;20.40;70.00;;;;;;5094808;28;20036;-37
2023/08/24 02:28:23;;;;;;;;;;;20.50;70.00;;;;;;5094844;28;19912;-37
2023/08/24 02:30:48;;;;;;;;;;;20.40;70.00;;;;;;5094873;28;20002;-37
2023/08/24 02:33:14;;;;;;;;;;;20.50;70.00;;;;;;5095097;28;19909;-37
2023/08/24 02:35:39;;;;;;;;;;;20.50;70.00;;;;;;5094552;28;20411;-37
2023/08/24 02:38:05;;;;;;;;;;;20.50;70.00;;;;;;5095093;28;20034;-37
2023/08/24 02:40:30;;;;;;;;;;;20.50;70.00;;;;;;5094902;28;19977;-36
2023/08/24 02:42:56;;;;;;;;;;;20.50;70.00;;;;;;5094507;28;19916;-37
2023/08/24 02:45:21;;;;;;;;;;;20.50;70.10;;;;;;5093267;28;19915;-34
2023/08/24 02:47:47;;;;;;;;;;;20.50;70.10;;;;;;5094415;28;19999;-37
2023/08/24 02:50:12;;;;;;;;;;;20.50;70.20;;;;;;5094127;28;19913;-37
2023/08/24 02:52:38;;;;;;;;;;;20.50;70.20;;;;;;5094324;28;19912;-38
2023/08/24 02:55:03;;;;;;;;;;;20.50;70.20;;;;;;5094217;28;19915;-36
2023/08/24 02:57:29;;;;;;;;;;;20.50;70.30;;;;;;5093877;28;19916;-38
2023/08/24 02:59:54;;;;;;;;;;;20.50;70.30;;;;;;5094520;28;19908;-36
2023/08/24 03:02:20;;;;;;;;;;;20.50;70.40;;;;;;5094267;28;20041;-39
2023/08/24 03:04:45;;;;;;;;;;;20.40;70.40;;;;;;5094315;28;19908;-36
2023/08/24 03:07:11;;;;;;;;;;;20.40;70.50;;;;;;5094109;28;20368;-36
2023/08/24 03:09:37;;;;;;;;;;;20.40;70.70;;;;;;5094041;28;19955;-37
2023/08/24 03:12:02;;;;;;;;;;;20.30;70.70;;;;;;5093802;28;19951;-37
2023/08/24 03:14:28;;;;;;;;;;;20.30;70.80;;;;;;5093941;28;19916;-36
2023/08/24 03:16:54;;;;;;;;;;;20.30;70.90;;;;;;5093730;28;20219;-36
2023/08/24 03:19:19;;;;;;;;;;;20.20;71.00;;;;;;5094020;28;19919;-36
2023/08/24 03:21:44;;;;;;;;;;;20.20;71.10;;;;;;5093696;28;19909;-37
2023/08/24 03:24:10;;;;;;;;;;;20.20;71.30;;;;;;5093757;28;20417;-37
2023/08/24 03:26:36;;;;;;;;;;;20.20;71.30;;;;;;5093738;28;19912;-37
2023/08/24 03:29:02;;;;;;;;;;;20.10;71.40;;;;;;5093423;28;19912;-37
2023/08/24 03:31:27;;;;;;;;;;;20.10;71.50;;;;;;5093746;28;20006;-38
2023/08/24 03:33:52;;;;;;;;;;;20.10;71.80;;;;;;5093554;28;19934;-35
2023/08/24 03:36:18;;;;;;;;;;;20.00;71.90;;;;;;5093452;28;20002;-38
2023/08/24 03:38:45;;;;;;;;;;;20.00;72.00;;;;;;5093356;28;19916;-37
2023/08/24 03:41:10;;;;;;;;;;;19.90;72.00;;;;;;5093671;28;19919;-37
2023/08/24 03:43:37;;;;;;;;;;;19.90;72.20;;;;;;5093427;28;19908;-37
2023/08/24 03:46:03;;;;;;;;;;;19.90;72.20;;;;;;5093349;28;19909;-42
2023/08/24 03:48:29;;;;;;;;;;;19.90;72.20;;;;;;5093133;28;19919;-38
2023/08/24 03:50:55;;;;;;;;;;;19.80;72.20;;;;;;5093446;28;20271;-36
2023/08/24 03:53:21;;;;;;;;;;;19.80;72.30;;;;;;5093531;28;19915;-40
2023/08/24 03:55:50;;;;;;;;;;;19.80;72.40;;;;;;5091847;28;19908;-37
2023/08/24 03:58:16;;;;;;;;;;;19.80;72.50;;;;;;5093331;28;20299;-36
2023/08/24 04:00:41;;;;;;;;;;;19.80;72.60;;;;;;5092996;28;19992;-38
2023/08/24 04:03:07;;;;;;;;;;;19.80;72.60;;;;;;5093361;28;19907;-38
2023/08/24 04:05:32;;;;;;;;;;;19.80;72.70;;;;;;5092810;28;20379;-37
2023/08/24 04:08:00;;;;;;;;;;;19.80;72.70;;;;;;5092668;28;19917;-37
2023/08/24 04:10:25;;;;;;;;;;;19.70;72.70;;;;;;5093131;28;19953;-37
2023/08/24 04:12:51;;;;;;;;;;;19.70;72.80;;;;;;5093042;28;20303;-38
2023/08/24 04:15:16;;;;;;;;;;;19.70;72.80;;;;;;5092804;28;19994;-36
2023/08/24 04:17:42;;;;;;;;;;;19.70;72.90;;;;;;5092909;28;20484;-38
2023/08/24 04:20:07;;;;;;;;;;;19.70;72.90;;;;;;5092764;28;20332;-34
2023/08/24 04:22:33;;;;;;;;;;;19.70;72.90;;;;;;5092630;28;20379;-37
2023/08/24 04:24:59;;;;;;;;;;;19.70;72.90;;;;;;5090363;28;19951;-37
2023/08/24 04:27:25;;;;;;;;;;;19.70;72.90;;;;;;5092317;28;19915;-36
2023/08/24 04:29:50;;;;;;;;;;;19.70;72.90;;;;;;5092700;28;19912;-38
2023/08/24 04:32:16;;;;;;;;;;;19.60;73.10;;;;;;5092871;28;19934;-35
2023/08/24 04:34:42;;;;;;;;;;;19.60;73.10;;;;;;5092843;28;19957;-37
2023/08/24 04:37:07;;;;;;;;;;;19.50;73.10;;;;;;5092382;28;19915;-36
2023/08/24 04:39:32;;;;;;;;;;;19.50;73.20;;;;;;5092511;28;19999;-36
2023/08/24 04:41:58;;;;;;;;;;;19.50;73.30;;;;;;5092163;28;20285;-37
2023/08/24 04:44:24;;;;;;;;;;;19.50;73.30;;;;;;5092556;28;19908;-37
2023/08/24 04:46:49;;;;;;;;;;;19.50;73.30;;;;;;5091191;28;19912;-38
2023/08/24 04:49:15;;;;;;;;;;;19.50;73.40;;;;;;5092204;28;19935;-36
2023/08/24 04:51:40;;;;;;;;;;;19.40;73.40;;;;;;5092289;28;19936;-36
2023/08/24 04:54:06;;;;;;;;;;;19.40;73.60;;;;;;5092206;28;19920;-37
2023/08/24 04:56:31;;;;;;;;;;;19.40;73.70;;;;;;5091986;28;19908;-37
2023/08/24 04:58:57;;;;;;;;;;;19.40;73.70;;;;;;5092130;28;19954;-37
2023/08/24 05:01:24;;;;;;;;;;;19.40;73.80;;;;;;5092358;28;20310;-38
2023/08/24 05:03:51;;;;;;;;;;;19.30;73.80;;;;;;5092181;28;19912;-37
2023/08/24 05:06:16;;;;;;;;;;;19.40;74.50;;;;;;5092060;28;19957;-37
2023/08/24 05:08:42;;;;;;;;;;;19.30;73.90;;;;;;5091858;28;20387;-37
2023/08/24 05:11:14;;;;;;;;;;;19.30;73.90;;;;;;5092370;28;19912;-37
2023/08/24 05:13:40;;;;;;;;;;;19.30;74.10;;;;;;5092444;28;20364;-38
2023/08/24 05:16:06;;;;;;;;;;;19.30;74.00;;;;;;5090564;28;19996;-37
2023/08/24 05:18:31;;;;;;;;;;;19.40;74.10;;;;;;5091627;28;19947;-37
2023/08/24 05:20:56;;;;;;;;;;;19.40;74.00;;;;;;5090513;28;19957;-35
2023/08/24 05:23:22;;;;;;;;;;;19.40;74.00;;;;;;5092331;28;19908;-37
2023/08/24 05:25:47;;;;;;;;;;;19.40;73.90;;;;;;5092019;28;19959;-37
2023/08/24 05:28:13;;;;;;;;;;;19.50;73.90;;;;;;5091718;28;20261;-37
2023/08/24 05:30:38;;;;;;;;;;;19.50;73.80;;;;;;5091981;28;19947;-37
2023/08/24 05:33:04;;;;;;;;;;;19.60;73.80;;;;;;5091835;28;19915;-37
2023/08/24 05:35:29;;;;;;;;;;;19.50;73.70;;;;;;5092185;28;19918;-37
2023/08/24 05:37:55;;;;;;;;;;;19.60;73.70;;;;;;5094364;28;19956;-37
2023/08/24 05:40:20;;;;;;;;;;;19.60;73.70;;;;;;5096014;28;19912;-37
2023/08/24 05:42:46;;;;;;;;;;;19.60;73.70;;;;;;5095714;28;19957;-37
2023/08/24 05:45:12;;;;;;;;;;;19.60;73.60;;;;;;5094287;28;19908;-37
2023/08/24 05:47:37;;;;;;;;;;;19.70;73.60;;;;;;5095376;28;19959;-37
2023/08/24 05:50:03;;;;;;;;;;;19.70;73.50;;;;;;5095203;28;19943;-36
2023/08/24 05:52:28;;;;;;;;;;;19.70;73.50;;;;;;5095841;28;20340;-37
2023/08/24 05:54:54;;;;;;;;;;;19.70;73.40;;;;;;5095488;28;20299;-36
2023/08/24 05:57:19;;;;;;;;;;;19.80;73.50;;;;;;5093926;28;19919;-36
2023/08/24 05:59:45;;;;;;;;;;;19.80;73.50;;;;;;5095389;28;20053;-36
2023/08/24 06:02:10;;;;;;;;;;;19.80;73.50;;;;;;5093924;28;19923;-37
2023/08/24 06:04:36;;;;;;;;;;;19.80;73.50;;;;;;5095334;28;19973;-37
2023/08/24 06:07:03;;;;;;;;;;;19.80;73.50;;;;;;5095081;28;19909;-36
2023/08/24 06:09:29;;;;;;;;;;;19.90;73.40;;;;;;5095000;28;19916;-35
2023/08/24 06:11:54;;;;;;;;;;;19.90;73.40;;;;;;5095042;28;19915;-36
2023/08/24 06:14:20;;;;;;;;;;;20.00;73.30;;;;;;5095166;28;19919;-38
2023/08/24 06:16:45;;;;;;;;;;;20.00;73.30;;;;;;5095375;28;20321;-37
2023/08/24 06:19:11;;;;;;;;;;;20.00;73.20;;;;;;5094809;28;19918;-36
2023/08/24 06:21:36;;;;;;;;;;;20.10;73.10;;;;;;5094755;28;19911;-38
2023/08/24 06:24:03;;;;;;;;;;;20.10;73.10;;;;;;5095034;28;19908;-37
2023/08/24 06:26:29;;;;;;;;;;;20.10;73.00;;;;;;5093484;28;19908;-37
2023/08/24 06:28:55;;;;;;;;;;;20.10;73.00;;;;;;5093345;28;20069;-35
2023/08/24 06:31:21;;;;;;;;;;;20.20;73.00;;;;;;5094747;28;19915;-35
2023/08/24 06:33:46;;;;;;;;;;;20.20;73.00;;;;;;5094999;28;19908;-36
2023/08/24 06:36:12;;;;;;;;;;;20.20;73.10;;;;;;5094498;28;19919;-36
2023/08/24 06:38:37;;;;;;;;;;;20.30;73.10;;;;;;5094454;28;19977;-38
2023/08/24 06:41:03;;;;;;;;;;;20.30;73.10;;;;;;5094457;28;20112;-36
2023/08/24 06:43:28;;;;;;;;;;;20.30;73.40;;;;;;5094803;28;19908;-37
2023/08/24 06:45:54;;;;;;;;;;;20.30;73.30;;;;;;5094402;28;20367;-36
2023/08/24 06:48:20;;;;;;;;;;;20.30;73.20;;;;;;5093137;28;20268;-37
2023/08/24 06:50:45;;;;;;;;;;;20.40;73.20;;;;;;5094099;28;19915;-37
2023/08/24 06:53:11;;;;;;;;;;;20.50;73.10;;;;;;5094369;28;19962;-37
2023/08/24 06:55:37;;;;;;;;;;;20.50;73.00;;;;;;5092584;28;19927;-36
2023/08/24 06:58:05;;;;;;;;;;;20.50;72.90;;;;;;5092907;28;19915;-35
2023/08/24 07:00:30;;;;;;;;;;;20.60;73.00;;;;;;5093048;28;19912;-38
2023/08/24 07:02:57;;;;;;;;;;;20.70;72.90;;;;;;5093001;28;20388;-37
2023/08/24 07:05:22;;;;;;;;;;;20.70;72.90;;;;;;5092849;28;20384;-36
2023/08/24 07:07:51;;;;;;;;;;;20.70;72.80;;;;;;5092763;28;19916;-38
2023/08/24 07:10:17;;;;;;;;;;;20.80;72.80;;;;;;5092741;28;19908;-37
2023/08/24 07:12:44;;;;;;;;;;;20.80;72.80;;;;;;5092945;28;20399;-37
2023/08/24 07:15:10;;;;;;;;;;;20.90;72.80;;;;;;5092878;28;19913;-37
2023/08/24 07:17:36;;;;;;;;;;;20.90;72.70;;;;;;5092418;28;19953;-37
2023/08/24 07:20:05;;;;;;;;;;;21.00;72.60;;;;;;5075430;28;20386;-38
2023/08/24 07:22:30;;;;;;;;;;;21.00;72.50;;;;;;5093740;28;19912;-37
2023/08/24 07:24:56;;;;;;;;;;;21.10;72.50;;;;;;5093848;28;19957;-37
2023/08/24 07:27:21;;;;;;;;;;;21.10;72.40;;;;;;5093351;28;19958;-38
2023/08/24 07:29:47;;;;;;;;;;;21.10;72.40;;;;;;5093557;28;20356;-37
2023/08/24 07:32:12;;;;;;;;;;;21.20;72.30;;;;;;5093679;28;20058;-37
2023/08/24 07:34:38;;;;;;;;;;;21.20;72.20;;;;;;5093371;28;19908;-35
2023/08/24 07:37:03;;;;;;;;;;;21.30;72.10;;;;;;5093247;28;19908;-37
2023/08/24 07:39:29;;;;;;;;;;;21.40;72.10;;;;;;5093392;28;19923;-37
2023/08/24 07:41:54;;;;;;;;;;;21.40;72.00;;;;;;5093248;28;19908;-35
2023/08/24 07:44:20;;;;;;;;;;;21.50;71.90;;;;;;5093386;28;19912;-38
2023/08/24 07:46:49;;;;;;;;;;;21.50;71.80;;;;;;5093647;28;19915;-42
2023/08/24 07:49:15;;;;;;;;;;;21.60;71.80;;;;;;5092903;28;19919;-40
2023/08/24 07:51:42;;;;;;;;;;;21.60;71.70;;;;;;5093057;28;20006;-38
2023/08/24 07:54:08;;;;;;;;;;;21.70;71.60;;;;;;5093134;28;19945;-38
2023/08/24 07:56:33;;;;;;;;;;;21.80;71.60;;;;;;5093087;28;19943;-36
2023/08/24 07:58:59;;;;;;;;;;;21.80;71.40;;;;;;5092974;28;19981;-37
2023/08/24 08:01:24;;;;;;;;;;;21.90;71.40;;;;;;5092983;28;20013;-37
2023/08/24 08:03:50;;;;;;;;;;;22.00;71.30;;;;;;5092911;28;19908;-37
2023/08/24 08:06:16;;;;;;;;;;;22.10;71.20;;;;;;5093023;28;19942;-35
2023/08/24 08:08:41;;;;;;;;;;;22.20;71.10;;;;;;5092888;28;19942;-38
2023/08/24 08:11:07;;;;;;;;;;;22.20;71.00;;;;;;5093025;28;19908;-37
2023/08/24 08:13:32;;;;;;;;;;;22.30;70.90;;;;;;5093040;28;19995;-37
2023/08/24 08:16:05;;;;;;;;;;;22.30;70.70;;;;;;5091472;28;19995;-37
2023/08/24 08:18:31;;;;;;;;;;;22.40;70.60;;;;;;5092797;28;20341;-37
2023/08/24 08:20:56;;;;;;;;;;;22.50;70.50;;;;;;5092524;28;19923;-36
2023/08/24 08:23:22;;;;;;;;;;;22.60;70.30;;;;;;5092645;28;19908;-38
2023/08/24 08:25:48;;;;;;;;;;;22.60;70.10;;;;;;5092732;28;19958;-36
2023/08/24 08:28:13;;;;;;;;;;;22.80;70.10;;;;;;5092043;28;19938;-38
2023/08/24 08:30:39;;;;;;;;;;;22.90;69.80;;;;;;5092551;28;19962;-45
2023/08/24 08:33:04;;;;;;;;;;;23.00;69.60;;;;;;5092717;28;19915;-37
2023/08/24 08:35:30;;;;;;;;;;;23.00;69.50;;;;;;5092724;28;20260;-37
2023/08/24 08:37:55;;;;;;;;;;;23.10;69.40;;;;;;5092346;28;19908;-36
2023/08/24 08:40:21;;;;;;;;;;;23.20;69.40;;;;;;5092629;28;20042;-36
2023/08/24 08:42:46;;;;;;;;;;;23.20;69.20;;;;;;5092249;28;20445;-38
2023/08/24 08:45:12;;;;;;;;;;;23.30;69.10;;;;;;5092732;28;19959;-36
2023/08/24 08:47:38;;;;;;;;;;;23.30;68.90;;;;;;5092436;28;19912;-35
2023/08/24 08:50:03;;;;;;;;;;;23.40;68.90;;;;;;5092381;28;19927;-36
2023/08/24 08:52:29;;;;;;;;;;;23.60;68.90;;;;;;5092265;28;19908;-38
2023/08/24 08:54:54;;;;;;;;;;;23.60;68.70;;;;;;5092627;28;19908;-36
2023/08/24 08:57:22;;;;;;;;;;;23.70;68.50;;;;;;5092019;28;19908;-37
2023/08/24 08:59:50;;;;;;;;;;;23.70;68.50;;;;;;5092349;28;19909;-37
2023/08/24 09:02:16;;;;;;;;;;;23.80;68.40;;;;;;5092489;28;19962;-38
2023/08/24 09:04:44;;;;;;;;;;;23.90;68.40;;;;;;5091859;28;19919;-35
2023/08/24 09:07:11;;;;;;;;;;;24.00;68.30;;;;;;5092102;28;19923;-37
2023/08/24 09:09:38;;;;;;;;;;;24.00;68.20;;;;;;5092526;28;19916;-37
2023/08/24 09:12:05;;;;;;;;;;;24.10;68.10;;;;;;5095165;28;19973;-37
2023/08/24 09:14:30;;;;;;;;;;;24.20;68.00;;;;;;5094747;28;19916;-36
2023/08/24 09:16:55;;;;;;;;;;;24.30;67.90;;;;;;5096179;28;20109;-36
2023/08/24 09:19:27;;;;;;;;;;;24.40;67.90;;;;;;5096087;28;19916;-38
2023/08/24 09:21:56;;;;;;;;;;;24.40;67.90;;;;;;5096366;28;19988;-39
2023/08/24 09:24:28;;;;;;;;;;;24.50;68.00;;;;;;5096115;28;19954;-37
2023/08/24 09:26:54;;;;;;;;;;;24.50;67.80;;;;;;5096046;28;19958;-36
2023/08/24 09:29:20;;;;;;;;;;;24.50;67.70;;;;;;5095769;28;19956;-37
2023/08/24 09:31:45;;;;;;;;;;;24.60;67.80;;;;;;5096197;28;19994;-36
2023/08/24 09:34:11;;;;;;;;;;;24.60;67.70;;;;;;5096111;28;20329;-36
2023/08/24 09:36:37;;;;;;;;;;;24.70;67.50;;;;;;5096160;28;19908;-37
2023/08/24 09:39:06;;;;;;;;;;;24.70;67.40;;;;;;5095990;28;19912;-37
2023/08/24 09:41:41;;;;;;;;;;;24.80;67.50;;;;;;5095927;28;20356;-36
2023/08/24 09:44:08;;;;;;;;;;;24.80;67.30;;;;;;5094421;28;19995;-37
2023/08/24 09:46:34;;;;;;;;;;;24.90;67.30;;;;;;5095845;28;19995;-37
2023/08/24 09:49:01;;;;;;;;;;;24.90;67.10;;;;;;5095354;28;19916;-37
2023/08/24 09:51:28;;;;;;;;;;;25.00;67.10;;;;;;5095244;28;19909;-36
2023/08/24 09:53:56;;;;;;;;;;;25.10;67.10;;;;;;5095539;28;19916;-35
2023/08/24 09:56:24;;;;;;;;;;;25.10;67.00;;;;;;5095186;28;19969;-34
2023/08/24 09:58:51;;;;;;;;;;;25.20;66.90;;;;;;5095446;28;19916;-38
2023/08/24 10:01:17;;;;;;;;;;;25.20;66.80;;;;;;5095282;28;20003;-34
2023/08/24 10:03:44;;;;;;;;;;;25.30;66.70;;;;;;5095454;28;19957;-37
2023/08/24 10:06:10;;;;;;;;;;;25.40;66.60;;;;;;5095341;28;19924;-38
2023/08/24 10:08:37;;;;;;;;;;;25.50;66.50;;;;;;5095109;28;19920;-37
2023/08/24 10:11:03;;;;;;;;;;;25.50;66.40;;;;;;5095721;28;19943;-37
2023/08/24 10:13:36;;;;;;;;;;;25.50;66.20;;;;;;5095352;28;19934;-37
2023/08/24 10:16:03;;;;;;;;;;;25.50;66.20;;;;;;5095165;28;19908;-38
2023/08/24 10:18:29;;;;;;;;;;;25.60;66.20;;;;;;5094849;28;19915;-36
2023/08/24 10:20:55;;;;;;;;;;;25.60;66.20;;;;;;5095243;28;19908;-36
2023/08/24 10:23:21;;;;;;;;;;;25.50;66.20;;;;;;5093758;28;19931;-45
2023/08/24 10:25:50;;;;;;;;;;;25.50;66.30;;;;;;5095125;28;19908;-35
2023/08/24 10:28:16;;;;;;;;;;;25.50;66.30;;;;;;5094584;28;19912;-35
2023/08/24 10:30:44;;;;;;;;;;;25.50;66.30;;;;;;5094744;28;19908;-36
2023/08/24 10:33:11;;;;;;;;;;;25.50;66.30;;;;;;5093905;28;20291;-46
2023/08/24 10:35:37;;;;;;;;;;;25.50;66.30;;;;;;5095058;28;20003;-36
2023/08/24 10:38:03;;;;;;;;;;;25.50;66.30;;;;;;5095021;28;19908;-36
2023/08/24 10:40:32;;;;;;;;;;;25.50;66.20;;;;;;5094782;28;20007;-38
2023/08/24 10:42:58;;;;;;;;;;;25.50;66.30;;;;;;5094792;28;19962;-36
2023/08/24 10:45:24;;;;;;;;;;;25.40;66.30;;;;;;5094837;28;20286;-38
2023/08/24 10:47:53;;;;;;;;;;;25.40;66.30;;;;;;5094531;28;20007;-40
2023/08/24 10:50:19;;;;;;;;;;;25.40;66.30;;;;;;5094491;28;20391;-36
2023/08/24 10:52:44;;;;;;;;;;;25.30;66.40;;;;;;5094369;28;19908;-36
2023/08/24 10:55:23;;;;;;;;;;;25.30;66.40;;;;;;5094290;28;20363;-36
2023/08/24 10:58:02;;;;;;;;;;;25.20;66.50;;;;;;5093027;28;19908;-36
2023/08/24 11:00:31;;;;;;;;;;;25.20;66.70;;;;;;5094206;28;19908;-36
2023/08/24 11:02:57;;;;;;;;;;;25.20;66.70;;;;;;5094707;28;20355;-36
2023/08/24 11:05:24;;;;;;;;;;;25.10;66.70;;;;;;5094081;28;19962;-36
2023/08/24 11:07:51;;;;;;;;;;;25.10;66.80;;;;;;5094157;28;19920;-36
2023/08/24 11:10:16;;;;;;;;;;;25.10;66.90;;;;;;5094275;28;20390;-36
2023/08/24 11:13:00;;;;;;;;;;;25.00;66.80;;;;;;5094192;28;19908;-36
2023/08/24 11:15:33;;;;;;;;;;;25.00;66.80;;;;;;5093994;28;19912;-36
2023/08/24 11:18:15;;;;;;;;;;;25.00;66.80;;;;;;5093826;28;19909;-36
2023/08/24 11:20:47;;;;;;;;;;;25.00;66.80;;;;;;5093745;28;19950;-37
2023/08/24 11:23:14;;;;;;;;;;;25.10;66.80;;;;;;5093814;28;19998;-38
2023/08/24 11:25:40;;;;;;;;;;;25.10;66.80;;;;;;5093743;28;19908;-36
2023/08/24 11:28:05;;;;;;;;;;;25.10;66.80;;;;;;5093852;28;19956;-38
2023/08/24 11:30:34;;;;;;;;;;;25.10;66.70;;;;;;5093593;28;19908;-37
2023/08/24 11:33:00;;;;;;;;;;;25.10;66.70;;;;;;5093620;28;19919;-37
2023/08/24 11:35:26;;;;;;;;;;;25.10;66.70;;;;;;5093594;28;19908;-38
2023/08/24 11:38:00;;;;;;;;;;;25.10;66.70;;;;;;5093259;28;19944;-37
2023/08/24 11:40:28;;;;;;;;;;;25.20;66.70;;;;;;5093452;28;19931;-37
2023/08/24 11:42:55;;;;;;;;;;;25.20;66.60;;;;;;5093221;28;20418;-37
2023/08/24 11:45:20;;;;;;;;;;;25.20;66.40;;;;;;5093334;28;19919;-36
2023/08/24 11:47:46;;;;;;;;;;;25.40;66.40;;;;;;5093071;28;19912;-37
2023/08/24 11:50:12;;;;;;;;;;;25.40;66.30;;;;;;5092787;28;19915;-35
2023/08/24 11:52:41;;;;;;;;;;;25.40;66.30;;;;;;5092998;28;19916;-35
2023/08/24 11:55:08;;;;;;;;;;;25.40;66.20;;;;;;5093072;28;19954;-37
2023/08/24 11:57:34;;;;;;;;;;;25.40;66.20;;;;;;5092839;28;20002;-37
2023/08/24 12:00:00;;;;;;;;;;;25.40;66.20;;;;;;5093135;28;20371;-36
2023/08/24 12:02:25;;;;;;;;;;;25.50;66.30;;;;;;5093114;28;19908;-37
2023/08/24 12:04:51;;;;;;;;;;;25.50;66.20;;;;;;5091451;28;19940;-35
2023/08/24 12:07:17;;;;;;;;;;;25.60;66.20;;;;;;5092745;28;19957;-37
2023/08/24 12:09:44;;;;;;;;;;;25.60;66.10;;;;;;5093165;28;19917;-37
2023/08/24 12:12:13;;;;;;;;;;;25.70;66.10;;;;;;5092932;28;19912;-37
2023/08/24 12:14:42;;;;;;;;;;;25.70;66.00;;;;;;5092802;28;20388;-36
2023/08/24 12:17:08;;;;;;;;;;;25.70;66.00;;;;;;5092783;28;19931;-37
2023/08/24 12:19:36;;;;;;;;;;;25.70;65.90;;;;;;5092197;28;20202;-36
2023/08/24 12:22:01;;;;;;;;;;;25.80;65.80;;;;;;5091349;28;19951;-33
2023/08/24 12:24:27;;;;;;;;;;;25.80;65.70;;;;;;5092702;28;19908;-29
2023/08/24 12:26:57;;;;;;;;;;;25.80;65.80;;;;;;5092682;28;19912;-29
2023/08/24 12:29:22;;;;;;;;;;;25.80;65.80;;;;;;5092471;28;19938;-29
2023/08/24 12:31:48;;;;;;;;;;;25.80;65.80;;;;;;5092709;28;20486;-32
2023/08/24 12:34:14;;;;;;;;;;;25.80;65.80;;;;;;5092579;28;19912;-32
2023/08/24 12:36:41;;;;;;;;;;;25.90;65.90;;;;;;5092582;28;19909;-31
2023/08/24 12:39:07;;;;;;;;;;;25.90;65.90;;;;;;5092812;28;19909;-29
2023/08/24 12:41:33;;;;;;;;;;;25.80;65.90;;;;;;5092447;28;19908;-32
2023/08/24 12:43:59;;;;;;;;;;;25.80;65.90;;;;;;5092399;28;19914;-32
2023/08/24 12:46:25;;;;;;;;;;;25.80;66.00;;;;;;5091726;28;19915;-32
2023/08/24 12:48:51;;;;;;;;;;;25.80;66.00;;;;;;5092073;28;20390;-30
2023/08/24 12:51:16;;;;;;;;;;;25.80;66.10;;;;;;5092487;28;19995;-33
2023/08/24 12:53:42;;;;;;;;;;;25.80;66.10;;;;;;5092522;28;19908;-31
2023/08/24 12:56:07;;;;;;;;;;;25.80;66.10;;;;;;5092339;28;20357;-32
2023/08/24 12:58:33;;;;;;;;;;;25.70;66.10;;;;;;5092124;28;19954;-31
2023/08/24 13:00:59;;;;;;;;;;;25.70;66.20;;;;;;5092321;28;19915;-31
2023/08/24 13:03:24;;;;;;;;;;;25.70;66.20;;;;;;5092127;28;19912;-30
2023/08/24 13:05:50;;;;;;;;;;;25.70;66.30;;;;;;5092054;28;20283;-31
2023/08/24 13:08:15;;;;;;;;;;;25.70;66.40;;;;;;5090646;28;20383;-30
2023/08/24 13:10:42;;;;;;;;;;;25.70;66.40;;;;;;5092204;28;19912;-29
2023/08/24 13:13:07;;;;;;;;;;;25.70;66.50;;;;;;5092639;28;20007;-31
2023/08/24 13:15:33;;;;;;;;;;;25.70;66.50;;;;;;5092275;28;19955;-31
2023/08/24 13:17:58;;;;;;;;;;;25.70;66.40;;;;;;5092287;28;19935;-31
2023/08/24 13:20:25;;;;;;;;;;;25.80;66.40;;;;;;5092074;28;19955;-30
2023/08/24 13:22:51;;;;;;;;;;;25.80;66.20;;;;;;5092603;28;19943;-42
2023/08/24 13:25:17;;;;;;;;;;;25.90;66.00;;;;;;5092543;28;19919;-33
2023/08/24 13:27:43;;;;;;;;;;;26.00;65.80;;;;;;5091751;28;19955;-31
2023/08/24 13:30:09;;;;;;;;;;;26.10;65.70;;;;;;5092033;28;20025;-31
2023/08/24 13:32:35;;;;;;;;;;;26.20;65.00;;;;;;5092164;28;19919;-30
2023/08/24 13:35:01;;;;;;;;;;;26.20;64.80;;;;;;5092117;28;19939;-32
2023/08/24 13:37:26;;;;;;;;;;;26.30;64.70;;;;;;5091799;28;19951;-30
2023/08/24 13:39:52;;;;;;;;;;;26.40;64.60;;;;;;5092063;28;20337;-31
2023/08/24 13:42:18;;;;;;;;;;;26.40;64.40;;;;;;5091781;28;20006;-31
2023/08/24 13:44:44;;;;;;;;;;;26.50;64.60;;;;;;5091905;28;19912;-30
2023/08/24 13:47:09;;;;;;;;;;;26.50;64.60;;;;;;5091763;28;19956;-33
2023/08/24 13:49:35;;;;;;;;;;;26.60;64.50;;;;;;5091605;28;19958;-33
2023/08/24 13:52:00;;;;;;;;;;;26.60;64.40;;;;;;5091905;28;19912;-28
2023/08/24 13:54:26;;;;;;;;;;;26.70;64.40;;;;;;5091662;28;19958;-29
2023/08/24 13:56:53;;;;;;;;;;;26.70;64.50;;;;;;5092748;28;19916;-29
2023/08/24 13:59:19;;;;;;;;;;;26.70;64.40;;;;;;5094540;28;19912;-30
2023/08/24 14:01:45;;;;;;;;;;;26.70;64.20;;;;;;5095583;28;20006;-32
2023/08/24 14:04:10;;;;;;;;;;;26.70;64.20;;;;;;5095403;28;19954;-41
2023/08/24 14:06:36;;;;;;;;;;;26.60;64.20;;;;;;5095362;28;19931;-34
2023/08/24 14:09:02;;;;;;;;;;;26.60;64.40;;;;;;5095150;28;19927;-30
2023/08/24 14:11:28;;;;;;;;;;;26.60;64.50;;;;;;5095341;28;19912;-31